Terminal Aerodrome Forecast
Issued by NWS Jacksonville, FL

Home | Current Version | Previous Version | Text Only | Print | Product List | Glossary On
Versions: 1 2 3 4 5 6 7 8 9 10 11 12 13 14 15 16 17 18 19
487
FTUS42 KJAX 191124
TAFSSI
TAF
KSSI 191124Z 1912/2012 VRB04KT 3SM BR BKN004
     FM191400 31008KT P6SM BKN015
     FM191500 31007KT P6SM SCT040
     FM192100 07008KT P6SM SKC
     FM200000 VRB03KT P6SM SKC=

USA.gov is the U.S. government's official web portal to all federal, state and local government web resources and services.